createdAt,value
2023-05-05T00:02:24.519Z,2.35
2023-05-05T00:04:51.006Z,1.80
2023-05-05T00:07:17.409Z,2.05
2023-05-05T00:09:43.916Z,2.35
2023-05-05T00:12:10.347Z,2.05
2023-05-05T00:14:36.777Z,2.03
2023-05-05T00:17:04.044Z,2.08
2023-05-05T00:19:30.552Z,1.98
2023-05-05T00:21:56.957Z,2.22
2023-05-05T00:24:23.551Z,2.25
2023-05-05T00:26:50.028Z,1.80
2023-05-05T00:29:16.529Z,1.85
2023-05-05T00:31:43.116Z,2.38
2023-05-05T00:34:09.605Z,2.00
2023-05-05T00:36:36.147Z,1.83
2023-05-05T00:39:02.956Z,1.88
2023-05-05T00:41:29.417Z,1.90
2023-05-05T00:43:55.839Z,1.73
2023-05-05T00:46:29.262Z,2.10
2023-05-05T00:48:56.329Z,1.90
2023-05-05T00:51:24.370Z,2.17
2023-05-05T00:53:51.256Z,2.05
2023-05-05T00:56:19.700Z,2.30
2023-05-05T00:58:46.803Z,1.85
2023-05-05T01:01:13.662Z,1.75
2023-05-05T01:03:41.577Z,2.08
2023-05-05T01:06:26.209Z,1.88
2023-05-05T01:09:06.667Z,2.08
2023-05-05T01:11:51.321Z,2.05
2023-05-05T01:14:23.471Z,1.80
2023-05-05T01:17:10.361Z,1.90
2023-05-05T01:19:55.560Z,1.88
2023-05-05T01:22:27.519Z,1.90
2023-05-05T01:25:12.352Z,2.03
2023-05-05T01:27:55.664Z,1.80
2023-05-05T01:30:52.969Z,2.08
2023-05-05T01:33:26.064Z,2.25
2023-05-05T01:35:56.049Z,1.77
2023-05-05T01:38:27.568Z,1.95
2023-05-05T01:41:13.534Z,1.80
2023-05-05T01:43:43.792Z,1.85
2023-05-05T01:46:13.209Z,1.98
2023-05-05T01:48:43.078Z,1.85
2023-05-05T01:51:11.611Z,2.00
2023-05-05T01:53:39.536Z,1.60
2023-05-05T01:56:08.226Z,1.85
2023-05-05T01:58:36.342Z,1.90
2023-05-05T02:01:04.475Z,2.00
2023-05-05T02:03:33.938Z,1.92
2023-05-05T02:06:01.500Z,1.80
2023-05-05T02:08:31.203Z,2.10
2023-05-05T02:10:58.199Z,1.88
2023-05-05T02:13:26.142Z,1.63
2023-05-05T02:15:53.341Z,7.82
2023-05-05T02:18:22.803Z,6.30
2023-05-05T02:20:50.056Z,3.92
2023-05-05T02:23:16.601Z,2.20
2023-05-05T02:25:49.285Z,1.90
2023-05-05T02:28:21.062Z,1.90
2023-05-05T02:30:57.526Z,1.90
2023-05-05T02:33:27.359Z,2.17
2023-05-05T02:35:57.236Z,2.13
2023-05-05T02:38:28.676Z,4.00
2023-05-05T02:41:01.532Z,6.68
2023-05-05T02:43:31.934Z,4.63
2023-05-05T02:45:58.989Z,3.50
2023-05-05T02:48:29.606Z,2.42
2023-05-05T02:50:59.872Z,2.00
2023-05-05T02:53:35.964Z,1.98
2023-05-05T02:56:27.105Z,1.95
2023-05-05T02:59:15.276Z,1.73
2023-05-05T03:04:46.985Z,1.48
2023-05-05T03:07:20.542Z,1.83
2023-05-05T03:10:08.542Z,1.90
2023-05-05T03:12:52.718Z,1.77
2023-05-05T03:15:35.923Z,1.67
2023-05-05T03:18:03.841Z,1.55
2023-05-05T03:20:31.134Z,1.63
2023-05-05T03:23:02.861Z,1.70
2023-05-05T03:25:50.094Z,1.67
2023-05-05T03:28:26.696Z,1.70
2023-05-05T03:30:54.396Z,1.80
2023-05-05T03:33:21.349Z,2.45
2023-05-05T03:35:47.954Z,1.50
2023-05-05T03:38:14.474Z,1.88
2023-05-05T03:40:44.651Z,2.20
2023-05-05T03:43:14.021Z,1.73
2023-05-05T03:45:40.610Z,1.92
2023-05-05T03:48:07.265Z,1.73
2023-05-05T03:50:33.785Z,1.67
2023-05-05T03:53:00.592Z,1.90
2023-05-05T03:55:27.061Z,1.60
2023-05-05T03:57:53.480Z,1.70
2023-05-05T04:00:19.961Z,1.90
2023-05-05T04:02:46.558Z,2.00
2023-05-05T04:05:16.075Z,1.90
2023-05-05T04:07:43.299Z,2.17
2023-05-05T04:10:10.327Z,2.13
2023-05-05T04:12:37.518Z,2.42
2023-05-05T04:15:04.542Z,2.15
2023-05-05T04:17:31.142Z,1.77
2023-05-05T04:19:58.196Z,1.98
2023-05-05T04:22:24.655Z,2.22
2023-05-05T04:24:51.652Z,2.38
2023-05-05T04:27:18.113Z,1.95
2023-05-05T04:29:44.637Z,2.28
2023-05-05T04:32:11.230Z,2.05
2023-05-05T04:34:37.719Z,1.80
2023-05-05T04:37:04.756Z,2.10
2023-05-05T04:39:31.326Z,2.15
2023-05-05T04:41:58.528Z,2.00
2023-05-05T04:44:25.071Z,1.90
2023-05-05T04:46:51.601Z,2.30
2023-05-05T04:49:18.196Z,2.60
2023-05-05T04:51:45.263Z,1.90
2023-05-05T04:54:11.837Z,2.00
2023-05-05T04:56:38.313Z,1.95
2023-05-05T04:59:04.812Z,1.85
2023-05-05T05:01:31.712Z,1.80
2023-05-05T05:03:58.569Z,2.20
2023-05-05T05:06:25.114Z,2.10
2023-05-05T05:08:52.349Z,1.92
2023-05-05T05:11:18.835Z,2.38
2023-05-05T05:13:46.207Z,2.30
2023-05-05T05:16:12.801Z,2.20
2023-05-05T05:18:39.277Z,2.60
2023-05-05T05:21:06.220Z,2.67
2023-05-05T05:23:33.084Z,2.53
2023-05-05T05:25:59.762Z,2.53
2023-05-05T05:28:26.692Z,2.25
2023-05-05T05:30:57.577Z,2.42
2023-05-05T05:33:24.086Z,2.20
2023-05-05T05:35:52.274Z,2.15
2023-05-05T05:38:20.562Z,2.22
2023-05-05T05:40:48.677Z,2.70
2023-05-05T05:43:15.329Z,6.00
2023-05-05T05:45:41.914Z,12.77
2023-05-05T05:48:08.669Z,12.07
2023-05-05T05:50:35.850Z,11.82
2023-05-05T05:53:02.529Z,10.52
2023-05-05T05:55:29.580Z,6.35
2023-05-05T05:57:56.371Z,5.28
2023-05-05T06:00:22.966Z,4.60
2023-05-05T06:02:56.591Z,4.38
2023-05-05T06:05:26.902Z,3.28
2023-05-05T06:07:53.853Z,3.75
2023-05-05T06:10:28.078Z,2.85
2023-05-05T06:13:01.350Z,2.85
2023-05-05T06:15:28.564Z,2.80
2023-05-05T06:17:55.558Z,3.20
2023-05-05T06:20:22.812Z,3.28
2023-05-05T06:22:49.524Z,3.60
2023-05-05T06:25:17.287Z,3.05
2023-05-05T06:27:44.585Z,2.55
2023-05-05T06:30:11.795Z,3.33
2023-05-05T06:32:38.232Z,3.63
2023-05-05T06:35:05.095Z,4.88
2023-05-05T06:37:31.489Z,3.55
2023-05-05T06:39:57.989Z,3.05
2023-05-05T06:42:24.471Z,3.10
2023-05-05T06:44:52.522Z,3.10
2023-05-05T06:47:18.986Z,2.45
2023-05-05T06:49:45.386Z,2.83
2023-05-05T06:52:12.583Z,2.55
2023-05-05T06:54:39.025Z,2.78
2023-05-05T06:57:05.736Z,2.80
2023-05-05T06:59:32.453Z,2.45
2023-05-05T07:01:59.457Z,2.65
2023-05-05T07:04:26.721Z,2.72
2023-05-05T07:06:55.112Z,2.42
2023-05-05T07:09:21.572Z,2.78
2023-05-05T07:11:47.954Z,3.53
2023-05-05T07:14:14.391Z,4.43
2023-05-05T07:16:40.855Z,4.43
2023-05-05T07:19:07.430Z,4.40
2023-05-05T07:21:34.179Z,3.97
2023-05-05T07:24:01.806Z,3.42
2023-05-05T07:26:28.345Z,3.58
2023-05-05T07:28:58.726Z,3.95
2023-05-05T07:31:26.412Z,3.70
2023-05-05T07:33:52.961Z,3.05
2023-05-05T07:36:19.543Z,3.30
2023-05-05T07:38:46.068Z,3.53
2023-05-05T07:41:12.979Z,3.55
2023-05-05T07:43:44.506Z,4.05
2023-05-05T07:46:11.516Z,3.47
2023-05-05T07:48:41.462Z,4.20
2023-05-05T07:51:08.884Z,3.53
2023-05-05T07:53:35.328Z,3.88
2023-05-05T07:56:01.915Z,4.10
2023-05-05T07:58:28.423Z,3.83
2023-05-05T08:00:54.916Z,3.55
2023-05-05T08:03:24.322Z,3.70
2023-05-05T08:05:54.458Z,3.60
2023-05-05T08:08:24.372Z,2.42
2023-05-05T08:10:51.883Z,2.55
2023-05-05T08:13:18.440Z,2.00
2023-05-05T08:15:45.323Z,2.20
2023-05-05T08:18:11.849Z,1.77
2023-05-05T08:20:38.310Z,1.83
2023-05-05T08:23:05.061Z,1.80
2023-05-05T08:25:31.590Z,1.75
2023-05-05T08:27:58.028Z,1.63
2023-05-05T08:30:24.514Z,1.85
2023-05-05T08:32:51.044Z,1.73
2023-05-05T08:35:17.641Z,2.00
2023-05-05T08:37:44.193Z,1.90
2023-05-05T08:40:14.361Z,1.90
2023-05-05T08:42:42.013Z,2.17
2023-05-05T08:45:09.948Z,1.33
2023-05-05T08:47:37.904Z,1.73
2023-05-05T08:50:08.066Z,1.58
2023-05-05T08:52:43.991Z,1.60
2023-05-05T08:55:15.409Z,1.63
2023-05-05T08:57:50.325Z,1.60
2023-05-05T09:00:18.824Z,1.60
2023-05-05T09:02:46.480Z,1.73
2023-05-05T09:05:13.509Z,1.65
2023-05-05T09:07:43.858Z,1.55
2023-05-05T09:10:12.297Z,1.45
2023-05-05T09:12:42.502Z,1.35
2023-05-05T09:15:14.290Z,1.60
2023-05-05T09:17:41.977Z,1.40
2023-05-05T09:20:10.468Z,1.70
2023-05-05T09:22:41.998Z,1.50
2023-05-05T09:25:13.423Z,1.88
2023-05-05T09:27:49.334Z,2.22
2023-05-05T09:32:52.925Z,1.60
2023-05-05T09:35:20.712Z,1.75
2023-05-05T09:37:47.824Z,1.75
2023-05-05T09:40:17.061Z,1.55
2023-05-05T09:42:44.663Z,1.58
2023-05-05T09:45:17.152Z,1.63
2023-05-05T09:47:45.702Z,2.00
2023-05-05T09:50:15.861Z,1.35
2023-05-05T09:52:45.799Z,1.73
2023-05-05T09:55:19.410Z,1.70
2023-05-05T09:57:47.297Z,2.00
2023-05-05T10:00:14.697Z,1.58
2023-05-05T10:02:41.875Z,1.60
2023-05-05T10:05:12.728Z,1.40
2023-05-05T10:07:41.281Z,1.55
2023-05-05T10:10:16.092Z,1.48
2023-05-05T10:12:43.433Z,2.10
2023-05-05T10:15:11.542Z,1.60
2023-05-05T10:18:05.386Z,1.98
2023-05-05T10:20:36.247Z,1.55
2023-05-05T10:23:06.535Z,1.45
2023-05-05T10:25:45.645Z,1.48
2023-05-05T10:28:19.628Z,1.25
2023-05-05T10:30:51.159Z,1.67
2023-05-05T10:33:32.256Z,1.48
2023-05-05T10:36:02.333Z,1.45
2023-05-05T10:38:30.693Z,1.30
2023-05-05T10:40:59.632Z,1.50
2023-05-05T10:43:27.503Z,1.23
2023-05-05T10:45:54.744Z,1.48
2023-05-05T10:48:30.703Z,1.70
2023-05-05T10:51:31.445Z,1.33
2023-05-05T10:54:16.961Z,1.58
2023-05-05T10:56:43.740Z,1.50
2023-05-05T10:59:38.701Z,1.55
2023-05-05T11:02:28.713Z,1.55
2023-05-05T11:05:23.530Z,1.58
2023-05-05T11:07:51.498Z,1.50
2023-05-05T11:10:20.530Z,1.38
2023-05-05T11:13:01.890Z,1.70
2023-05-05T11:15:28.636Z,1.60
2023-05-05T11:17:57.144Z,1.65
2023-05-05T11:20:39.686Z,1.60
2023-05-05T11:23:06.265Z,1.75
2023-05-05T11:25:40.595Z,1.65
2023-05-05T11:28:08.851Z,1.50
2023-05-05T11:30:59.703Z,1.50
2023-05-05T11:33:31.457Z,1.40
2023-05-05T11:36:05.738Z,1.60
2023-05-05T11:38:35.940Z,1.88
2023-05-05T11:41:16.531Z,1.65
2023-05-05T11:43:43.288Z,1.73
2023-05-05T11:46:14.244Z,1.83
2023-05-05T11:48:58.530Z,1.40
2023-05-05T11:51:25.615Z,1.85
2023-05-05T11:53:52.561Z,1.75
2023-05-05T11:56:20.497Z,1.50
2023-05-05T11:58:47.866Z,1.42
2023-05-05T12:01:14.906Z,1.58
2023-05-05T12:03:41.642Z,1.80
2023-05-05T12:06:08.616Z,1.90
2023-05-05T12:08:39.530Z,1.52
2023-05-05T12:11:11.024Z,1.58
2023-05-05T12:13:37.458Z,1.60
2023-05-05T12:16:15.225Z,1.48
2023-05-05T12:18:42.484Z,1.42
2023-05-05T12:21:19.204Z,1.70
2023-05-05T12:23:46.040Z,1.88
2023-05-05T12:26:26.127Z,1.80
2023-05-05T12:28:52.617Z,1.85
2023-05-05T12:31:19.916Z,1.48
2023-05-05T12:33:47.201Z,1.58
2023-05-05T12:36:14.174Z,1.90
2023-05-05T12:38:41.865Z,1.75
2023-05-05T12:41:08.300Z,1.60
2023-05-05T12:43:35.438Z,1.88
2023-05-05T12:46:04.515Z,1.75
2023-05-05T12:48:31.551Z,1.50
2023-05-05T12:51:11.443Z,1.98
2023-05-05T12:53:37.924Z,1.42
2023-05-05T12:56:04.714Z,1.40
2023-05-05T12:58:48.513Z,1.27
2023-05-05T13:01:14.984Z,1.60
2023-05-05T13:03:41.760Z,1.52
2023-05-05T13:06:21.758Z,1.50
2023-05-05T13:08:48.206Z,1.50
2023-05-05T13:11:14.694Z,1.40
2023-05-05T13:13:42.083Z,1.60
2023-05-05T13:16:08.608Z,1.45
2023-05-05T13:18:48.313Z,1.30
2023-05-05T13:21:14.948Z,1.30
2023-05-05T13:23:47.248Z,1.27
2023-05-05T13:26:14.105Z,1.15
2023-05-05T13:28:41.173Z,1.40
2023-05-05T13:31:07.950Z,1.20
2023-05-05T13:33:34.862Z,1.15
2023-05-05T13:36:04.634Z,1.60
2023-05-05T13:38:34.386Z,1.45
2023-05-05T13:41:00.906Z,1.40
2023-05-05T13:43:27.315Z,1.30
2023-05-05T13:45:53.724Z,1.40
2023-05-05T13:48:20.763Z,1.27
2023-05-05T13:50:47.264Z,1.58
2023-05-05T13:53:14.083Z,1.55
2023-05-05T13:55:41.981Z,1.83
2023-05-05T13:58:08.708Z,1.60
2023-05-05T14:00:35.472Z,2.33
2023-05-05T14:03:02.261Z,1.80
2023-05-05T14:05:28.726Z,1.60
2023-05-05T14:07:55.475Z,2.00
2023-05-05T14:10:21.958Z,1.60
2023-05-05T14:12:48.417Z,2.05
2023-05-05T14:15:14.837Z,1.90
2023-05-05T14:17:41.311Z,1.80
2023-05-05T14:20:08.314Z,1.88
2023-05-05T14:22:34.733Z,1.73
2023-05-05T14:25:01.163Z,1.80
2023-05-05T14:27:27.627Z,1.80
2023-05-05T14:29:54.208Z,1.60
2023-05-05T14:32:20.673Z,1.80
2023-05-05T14:34:49.623Z,1.63
2023-05-05T14:37:16.885Z,2.25
2023-05-05T14:39:43.310Z,1.77
2023-05-05T14:42:10.919Z,2.25
2023-05-05T14:44:37.369Z,1.83
2023-05-05T14:47:03.765Z,2.03
2023-05-05T14:49:30.239Z,1.95
2023-05-05T14:51:56.864Z,2.00
2023-05-05T14:54:28.448Z,2.00
2023-05-05T14:56:55.869Z,1.90
2023-05-05T14:59:22.400Z,1.58
2023-05-05T15:01:48.835Z,2.00
2023-05-05T15:04:15.901Z,1.92
2023-05-05T15:06:42.363Z,2.08
2023-05-05T15:09:08.823Z,2.28
2023-05-05T15:11:35.269Z,3.17
2023-05-05T15:14:01.709Z,2.38
2023-05-05T15:16:28.230Z,1.83
2023-05-05T15:18:54.748Z,2.33
2023-05-05T15:21:21.161Z,2.88
2023-05-05T15:23:47.588Z,2.40
2023-05-05T15:26:14.037Z,1.40
2023-05-05T15:28:41.102Z,1.52
2023-05-05T15:31:07.529Z,1.33
2023-05-05T15:33:34.744Z,1.73
2023-05-05T15:36:01.344Z,3.10
2023-05-05T15:38:29.022Z,1.88
2023-05-05T15:40:55.657Z,1.20
2023-05-05T15:43:22.080Z,2.45
2023-05-05T15:45:48.489Z,1.45
2023-05-05T15:48:14.875Z,1.63
2023-05-05T15:50:41.299Z,2.58
2023-05-05T15:53:07.728Z,2.20
2023-05-05T15:55:34.168Z,2.33
2023-05-05T15:58:00.945Z,1.60
2023-05-05T16:00:28.088Z,2.40
2023-05-05T16:02:54.592Z,2.40
2023-05-05T16:05:22.990Z,1.80
2023-05-05T16:07:49.747Z,1.98
2023-05-05T16:10:17.487Z,1.60
2023-05-05T16:12:43.921Z,2.05
2023-05-05T16:15:11.166Z,2.30
2023-05-05T16:17:38.085Z,2.03
2023-05-05T16:20:05.037Z,1.83
2023-05-05T16:22:31.577Z,1.50
2023-05-05T16:24:57.983Z,1.05
2023-05-05T16:27:24.590Z,1.20
2023-05-05T16:29:51.214Z,1.27
2023-05-05T16:32:17.653Z,1.33
2023-05-05T16:34:44.274Z,1.38
2023-05-05T16:37:10.845Z,1.55
2023-05-05T16:39:40.133Z,1.00
2023-05-05T16:42:06.895Z,1.10
2023-05-05T16:44:33.331Z,0.88
2023-05-05T16:46:59.769Z,1.05
2023-05-05T16:49:26.197Z,1.15
2023-05-05T16:51:53.400Z,0.80
2023-05-05T16:54:19.869Z,1.00
2023-05-05T16:56:46.405Z,1.10
2023-05-05T16:59:12.958Z,0.90
2023-05-05T17:01:39.392Z,0.80
2023-05-05T17:04:05.921Z,0.80
2023-05-05T17:06:33.010Z,0.90
2023-05-05T17:09:00.201Z,0.70
2023-05-05T17:11:26.717Z,0.80
2023-05-05T17:13:53.159Z,0.80
2023-05-05T17:16:19.635Z,0.90
2023-05-05T17:18:46.114Z,0.77
2023-05-05T17:21:12.558Z,1.35
2023-05-05T17:23:38.944Z,0.68
2023-05-05T17:26:05.424Z,1.05
2023-05-05T17:28:31.836Z,0.80
2023-05-05T17:30:59.873Z,1.10
2023-05-05T17:33:26.366Z,0.70
2023-05-05T17:35:52.838Z,0.80
2023-05-05T17:38:19.298Z,0.68
2023-05-05T17:40:45.737Z,0.90
2023-05-05T17:43:12.125Z,0.73
2023-05-05T17:45:38.601Z,0.90
2023-05-05T17:48:05.478Z,0.85
2023-05-05T17:50:31.901Z,1.00
2023-05-05T17:52:58.350Z,0.82
2023-05-05T17:55:24.779Z,0.93
2023-05-05T17:57:51.252Z,0.80
2023-05-05T18:00:18.264Z,0.90
2023-05-05T18:02:45.208Z,1.00
2023-05-05T18:05:11.952Z,1.13
2023-05-05T18:07:38.729Z,1.10
2023-05-05T18:10:07.020Z,1.05
2023-05-05T18:12:33.601Z,0.80
2023-05-05T18:15:01.477Z,0.80
2023-05-05T18:17:27.868Z,0.93
2023-05-05T18:19:54.456Z,1.05
2023-05-05T18:22:21.732Z,1.00
2023-05-05T18:24:48.190Z,1.00
2023-05-05T18:27:15.475Z,0.88
2023-05-05T18:29:41.929Z,1.00
2023-05-05T18:32:08.343Z,1.02
2023-05-05T18:34:34.801Z,0.85
2023-05-05T18:37:02.311Z,0.85
2023-05-05T18:39:28.707Z,1.05
2023-05-05T18:41:55.348Z,1.20
2023-05-05T18:44:21.755Z,0.85
2023-05-05T18:46:48.269Z,1.20
2023-05-05T18:49:15.247Z,0.90
2023-05-05T18:51:41.728Z,1.00
2023-05-05T18:54:08.154Z,0.82
2023-05-05T18:56:34.721Z,0.90
2023-05-05T18:59:01.128Z,1.20
2023-05-05T19:01:27.592Z,1.20
2023-05-05T19:03:54.105Z,1.30
2023-05-05T19:06:20.586Z,1.30
2023-05-05T19:08:47.069Z,1.23
2023-05-05T19:11:15.060Z,1.45
2023-05-05T19:13:42.003Z,1.40
2023-05-05T19:16:08.504Z,1.40
2023-05-05T19:18:34.976Z,1.83
2023-05-05T19:21:01.685Z,1.58
2023-05-05T19:23:28.118Z,1.30
2023-05-05T19:25:54.568Z,1.20
2023-05-05T19:28:21.379Z,0.85
2023-05-05T19:30:48.655Z,1.23
2023-05-05T19:33:15.789Z,2.00
2023-05-05T19:35:42.436Z,1.73
2023-05-05T19:38:10.232Z,2.08
2023-05-05T19:40:39.958Z,1.50
2023-05-05T19:43:06.397Z,1.60
2023-05-05T19:45:33.739Z,1.45
2023-05-05T19:48:01.407Z,1.70
2023-05-05T19:50:29.740Z,1.50
2023-05-05T19:52:56.267Z,1.67
2023-05-05T19:55:22.834Z,1.85
2023-05-05T19:57:49.292Z,4.50
2023-05-05T20:00:16.185Z,4.78
2023-05-05T20:02:42.775Z,4.05
2023-05-05T20:05:11.413Z,2.70
2023-05-05T20:07:37.858Z,3.40
2023-05-05T20:10:04.620Z,2.90
2023-05-05T20:12:31.090Z,2.30
2023-05-05T20:14:57.503Z,2.20
2023-05-05T20:17:25.657Z,2.33
2023-05-05T20:19:52.292Z,2.85
2023-05-05T20:22:18.785Z,3.08
2023-05-05T20:24:45.210Z,2.92
2023-05-05T20:27:11.627Z,2.30
2023-05-05T20:29:38.064Z,1.83
2023-05-05T20:32:05.534Z,1.90
2023-05-05T20:34:31.968Z,2.10
2023-05-05T20:36:58.433Z,2.25
2023-05-05T20:39:25.031Z,1.58
2023-05-05T20:41:51.450Z,1.20
2023-05-05T20:44:17.927Z,1.45
2023-05-05T20:46:44.414Z,1.23
2023-05-05T20:49:10.876Z,2.33
2023-05-05T20:51:37.315Z,1.88
2023-05-05T20:54:04.041Z,2.28
2023-05-05T20:56:30.435Z,3.45
2023-05-05T20:58:56.899Z,2.17
2023-05-05T21:01:23.439Z,3.22
2023-05-05T21:03:49.870Z,2.13
2023-05-05T21:06:16.341Z,2.17
2023-05-05T21:08:42.789Z,2.20
2023-05-05T21:11:09.903Z,2.25
2023-05-05T21:13:36.416Z,3.20
2023-05-05T21:16:02.844Z,3.10
2023-05-05T21:18:29.252Z,3.03
2023-05-05T21:20:56.130Z,3.40
2023-05-05T21:23:22.565Z,3.00
2023-05-05T21:25:49.090Z,2.40
2023-05-05T21:28:15.923Z,2.60
2023-05-05T21:30:42.390Z,3.60
2023-05-05T21:33:08.949Z,3.28
2023-05-05T21:35:35.460Z,2.70
2023-05-05T21:38:01.895Z,2.20
2023-05-05T21:40:28.374Z,2.50
2023-05-05T21:42:54.847Z,2.20
2023-05-05T21:45:21.356Z,2.20
2023-05-05T21:47:47.867Z,2.63
2023-05-05T21:50:14.308Z,2.83
2023-05-05T21:52:41.358Z,2.42
2023-05-05T21:55:10.495Z,2.53
2023-05-05T21:57:36.926Z,2.60
2023-05-05T22:00:05.885Z,2.70
2023-05-05T22:02:38.916Z,2.80
2023-05-05T22:05:05.937Z,2.60
2023-05-05T22:07:33.014Z,2.50
2023-05-05T22:09:59.554Z,3.10
2023-05-05T22:12:25.985Z,3.10
2023-05-05T22:14:52.454Z,2.65
2023-05-05T22:17:18.952Z,2.30
2023-05-05T22:19:45.424Z,2.28
2023-05-05T22:22:11.904Z,2.30
2023-05-05T22:24:38.285Z,2.28
2023-05-05T22:27:04.685Z,2.65
2023-05-05T22:29:31.112Z,2.60
2023-05-05T22:31:57.545Z,2.80
2023-05-05T22:34:23.995Z,2.72
2023-05-05T22:36:50.380Z,2.55
2023-05-05T22:39:18.448Z,2.60
2023-05-05T22:41:44.959Z,1.90
2023-05-05T22:44:11.431Z,2.20
2023-05-05T22:46:37.843Z,2.33
2023-05-05T22:49:04.310Z,2.10
2023-05-05T22:51:31.722Z,2.10
2023-05-05T22:53:58.279Z,2.25
2023-05-05T22:56:24.801Z,2.10
2023-05-05T22:58:51.217Z,4.72
2023-05-05T23:01:17.727Z,2.92
2023-05-05T23:03:44.182Z,2.55
2023-05-05T23:06:10.609Z,2.20
2023-05-05T23:08:37.004Z,2.25
2023-05-05T23:11:03.548Z,2.40
2023-05-05T23:13:29.986Z,2.47
2023-05-05T23:15:56.384Z,1.92
2023-05-05T23:18:22.794Z,1.83
2023-05-05T23:20:49.200Z,1.85
2023-05-05T23:23:15.645Z,2.20
2023-05-05T23:25:42.077Z,2.00
2023-05-05T23:28:08.552Z,1.80
2023-05-05T23:30:35.028Z,2.00
2023-05-05T23:33:01.501Z,1.80
2023-05-05T23:35:28.152Z,2.25
2023-05-05T23:37:54.738Z,1.63
2023-05-05T23:40:21.251Z,1.90
2023-05-05T23:42:47.705Z,1.70
2023-05-05T23:45:14.153Z,1.70
2023-05-05T23:47:40.623Z,1.48
2023-05-05T23:50:07.782Z,1.42
2023-05-05T23:52:34.198Z,1.80
2023-05-05T23:55:00.653Z,1.70
2023-05-05T23:57:27.060Z,1.83
2023-05-05T23:59:53.472Z,1.58
